createdAt,value
2018-03-19T00:00:17.715Z,-1.10
2018-03-19T00:02:45.237Z,-1.10
2018-03-19T00:05:12.685Z,-1.10
2018-03-19T00:07:40.245Z,-1.00
2018-03-19T00:10:07.726Z,-1.00
2018-03-19T00:12:35.966Z,-0.90
2018-03-19T00:15:03.454Z,-0.90
2018-03-19T00:17:31.793Z,-0.90
2018-03-19T00:19:59.240Z,-0.90
2018-03-19T00:22:26.729Z,-0.90
2018-03-19T00:24:54.999Z,-0.90
2018-03-19T00:27:22.470Z,-0.90
2018-03-19T00:29:50.825Z,-0.90
2018-03-19T00:32:18.297Z,-0.90
2018-03-19T00:34:45.754Z,-0.90
2018-03-19T00:37:13.236Z,-0.90
2018-03-19T00:39:40.699Z,-0.90
2018-03-19T00:42:08.202Z,-0.80
2018-03-19T00:44:35.657Z,-0.90
2018-03-19T00:47:03.156Z,-0.80
2018-03-19T00:49:30.614Z,-0.90
2018-03-19T00:51:58.075Z,-0.90
2018-03-19T00:54:25.583Z,-0.90
2018-03-19T00:56:53.017Z,-0.90
2018-03-19T00:59:20.509Z,-0.90
2018-03-19T01:01:48.056Z,-0.80
2018-03-19T01:04:15.534Z,-0.90
2018-03-19T01:06:43.775Z,-0.90
2018-03-19T01:09:11.241Z,-0.90
2018-03-19T01:11:38.800Z,-0.90
2018-03-19T01:14:06.292Z,-1.00
2018-03-19T01:16:33.750Z,-1.00
2018-03-19T01:19:01.266Z,-1.10
2018-03-19T01:21:28.822Z,-1.10
2018-03-19T01:23:56.381Z,-1.10
2018-03-19T01:26:24.605Z,-1.20
2018-03-19T01:28:52.094Z,-1.30
2018-03-19T01:31:19.574Z,-1.30
2018-03-19T01:33:47.129Z,-1.20
2018-03-19T01:36:14.692Z,-1.30
2018-03-19T01:38:42.245Z,-1.30
2018-03-19T01:41:09.803Z,-1.30
2018-03-19T01:43:37.524Z,-1.20
2018-03-19T01:46:05.008Z,-1.20
2018-03-19T01:48:32.568Z,-1.10
2018-03-19T01:51:00.054Z,-1.10
2018-03-19T01:53:28.297Z,-1.10
2018-03-19T01:55:55.761Z,-1.10
2018-03-19T01:58:23.274Z,-1.10
2018-03-19T02:00:50.729Z,-1.00
2018-03-19T02:03:18.213Z,-1.10
2018-03-19T02:05:45.684Z,-1.10
2018-03-19T02:08:13.178Z,-1.10
2018-03-19T02:10:41.394Z,-1.00
2018-03-19T02:13:08.984Z,-1.10
2018-03-19T02:15:36.462Z,-1.00
2018-03-19T02:18:04.705Z,-1.00
2018-03-19T02:20:32.267Z,-1.00
2018-03-19T02:22:59.757Z,-1.00
2018-03-19T02:25:27.216Z,-1.00
2018-03-19T02:27:54.730Z,-1.00
2018-03-19T02:30:22.963Z,-1.00
2018-03-19T02:32:50.419Z,-1.00
2018-03-19T02:35:17.931Z,-1.00
2018-03-19T02:37:45.386Z,-1.00
2018-03-19T02:40:13.664Z,-1.00
2018-03-19T02:42:41.124Z,-1.10
2018-03-19T02:45:09.347Z,-1.00
2018-03-19T02:47:36.836Z,-1.10
2018-03-19T02:50:04.316Z,-1.00
2018-03-19T02:52:32.560Z,-1.00
2018-03-19T02:55:00.049Z,-1.00
2018-03-19T02:57:28.276Z,-1.00
2018-03-19T02:59:55.777Z,-1.00
2018-03-19T03:02:24.025Z,-1.00
2018-03-19T03:04:51.522Z,-1.00
2018-03-19T03:07:18.975Z,-1.00
2018-03-19T03:09:46.436Z,-1.00
2018-03-19T03:12:13.945Z,-1.00
2018-03-19T03:14:41.414Z,-1.00
2018-03-19T03:17:08.964Z,-1.00
2018-03-19T03:19:36.450Z,-1.00
2018-03-19T03:22:04.668Z,-1.00
2018-03-19T03:24:32.149Z,-1.00
2018-03-19T03:26:59.702Z,-1.00
2018-03-19T03:29:27.265Z,-1.00
2018-03-19T03:31:54.756Z,-1.00
2018-03-19T03:34:22.214Z,-1.00
2018-03-19T03:36:49.694Z,-0.90
2018-03-19T03:39:17.187Z,-1.00
2018-03-19T03:41:44.808Z,-0.90
2018-03-19T03:44:12.286Z,-0.90
2018-03-19T03:46:39.773Z,-0.90
2018-03-19T03:49:07.314Z,-0.90
2018-03-19T03:51:35.587Z,-0.90
2018-03-19T03:54:03.071Z,-1.00
2018-03-19T03:56:31.298Z,-1.00
2018-03-19T03:58:58.876Z,-1.00
2018-03-19T04:01:26.341Z,-1.00
2018-03-19T04:03:53.890Z,-1.00
2018-03-19T04:06:21.372Z,-1.00
2018-03-19T04:08:49.598Z,-1.00
2018-03-19T04:11:17.086Z,-1.00
2018-03-19T04:13:44.638Z,-1.00
2018-03-19T04:16:12.190Z,-0.90
2018-03-19T04:18:39.751Z,-1.00
2018-03-19T04:21:07.217Z,-1.00
2018-03-19T04:23:35.480Z,-1.00
2018-03-19T04:26:02.965Z,-1.00
2018-03-19T04:28:31.208Z,-1.00
2018-03-19T04:30:58.798Z,-1.00
2018-03-19T04:33:27.069Z,-1.00
2018-03-19T04:35:55.318Z,-1.00
2018-03-19T04:38:22.773Z,-1.00
2018-03-19T04:40:50.228Z,-1.00
2018-03-19T04:43:17.700Z,-1.00
2018-03-19T04:45:47.336Z,-1.00
2018-03-19T04:48:16.726Z,-1.00
2018-03-19T04:56:28.022Z,-1.00
2018-03-19T04:58:56.651Z,-1.00
2018-03-19T05:01:27.065Z,-1.00
2018-03-19T05:03:55.843Z,-1.00
2018-03-19T05:06:25.009Z,-1.00
2018-03-19T05:08:52.565Z,-1.00
2018-03-19T05:11:20.027Z,-1.10
2018-03-19T05:13:47.685Z,-1.00
2018-03-19T05:16:15.538Z,-1.00
2018-03-19T05:18:44.287Z,-1.00
2018-03-19T05:21:12.610Z,-1.00
2018-03-19T05:23:41.296Z,-1.00
2018-03-19T05:26:09.703Z,-1.00
2018-03-19T05:28:37.818Z,-1.00
2018-03-19T05:31:05.411Z,-1.00
2018-03-19T05:33:33.647Z,-1.00
2018-03-19T05:36:01.136Z,-1.00
2018-03-19T05:38:29.383Z,-1.00
2018-03-19T05:40:56.872Z,-1.00
2018-03-19T05:43:25.132Z,-1.00
2018-03-19T05:45:52.691Z,-1.00
2018-03-19T05:48:20.193Z,-1.00
2018-03-19T05:50:47.723Z,-1.00
2018-03-19T05:53:16.083Z,-1.00
2018-03-19T05:55:43.590Z,-1.00
2018-03-19T05:58:12.722Z,-1.00
2018-03-19T06:00:40.287Z,-1.00
2018-03-19T06:03:08.550Z,-1.00
2018-03-19T06:05:36.039Z,-1.00
2018-03-19T06:08:04.396Z,-1.00
2018-03-19T06:10:32.007Z,-0.90
2018-03-19T06:12:59.510Z,-1.00
2018-03-19T06:15:27.745Z,-0.90
2018-03-19T06:17:55.246Z,-0.90
2018-03-19T06:20:22.808Z,-0.90
2018-03-19T06:22:51.086Z,-1.00
2018-03-19T06:25:18.553Z,-1.00
2018-03-19T06:27:46.903Z,-1.00
2018-03-19T06:30:14.371Z,-1.00
2018-03-19T06:32:42.739Z,-1.00
2018-03-19T06:35:10.296Z,-1.00
2018-03-19T06:37:37.820Z,-1.00
2018-03-19T06:40:06.045Z,-0.90
2018-03-19T06:42:34.274Z,-0.90
2018-03-19T06:45:01.871Z,-0.90
2018-03-19T06:47:29.427Z,-0.90
2018-03-19T06:49:56.930Z,-0.90
2018-03-19T06:52:24.422Z,-0.90
2018-03-19T06:54:51.987Z,-0.90
2018-03-19T06:57:19.551Z,-0.90
2018-03-19T06:59:47.044Z,-0.90
2018-03-19T07:02:14.508Z,-0.90
2018-03-19T07:04:42.014Z,-0.90
2018-03-19T07:07:09.574Z,-0.90
2018-03-19T07:09:37.136Z,-0.90
2018-03-19T07:12:04.631Z,-1.00
2018-03-19T07:14:32.136Z,-1.00
2018-03-19T07:16:59.610Z,-1.00
2018-03-19T07:19:27.163Z,-1.00
2018-03-19T07:21:54.658Z,-0.90
2018-03-19T07:24:22.172Z,-0.80
2018-03-19T07:26:49.738Z,-0.80
2018-03-19T07:29:17.206Z,-0.80
2018-03-19T07:31:45.568Z,-0.80
2018-03-19T07:34:13.073Z,-0.80
2018-03-19T07:36:40.530Z,-0.70
2018-03-19T07:39:08.007Z,-0.70
2018-03-19T07:41:35.590Z,-0.60
2018-03-19T07:44:03.118Z,-0.60
2018-03-19T07:46:31.420Z,-0.60
2018-03-19T07:48:58.975Z,-0.60
2018-03-19T07:51:26.536Z,-0.60
2018-03-19T07:53:54.011Z,-0.60
2018-03-19T07:56:22.266Z,-0.40
2018-03-19T07:58:49.746Z,-0.40
2018-03-19T08:01:18.020Z,-0.30
2018-03-19T08:03:46.270Z,-0.30
2018-03-19T08:06:13.743Z,-0.30
2018-03-19T08:08:41.995Z,-0.10
2018-03-19T08:11:09.458Z,-0.20
2018-03-19T08:13:36.971Z,-0.10
2018-03-19T08:16:04.471Z,-0.10
2018-03-19T08:18:32.030Z,-0.10
2018-03-19T08:20:59.500Z,0.00
2018-03-19T08:23:27.769Z,0.20
2018-03-19T08:25:56.339Z,0.30
2018-03-19T08:28:23.811Z,0.20
2018-03-19T08:30:52.044Z,0.20
2018-03-19T08:33:19.531Z,0.20
2018-03-19T08:35:47.001Z,0.20
2018-03-19T08:38:15.258Z,0.20
2018-03-19T08:40:42.826Z,0.20
2018-03-19T08:43:12.711Z,0.30
2018-03-19T08:45:40.187Z,0.30
2018-03-19T08:48:07.675Z,0.30
2018-03-19T08:50:35.167Z,0.20
2018-03-19T08:53:02.659Z,0.00
2018-03-19T08:55:30.895Z,-0.10
2018-03-19T08:57:58.372Z,-0.10
2018-03-19T09:00:25.945Z,-0.10
2018-03-19T09:02:53.500Z,0.00
2018-03-19T09:05:21.059Z,0.10
2018-03-19T09:07:48.583Z,0.10
2018-03-19T09:10:16.101Z,0.00
2018-03-19T09:12:43.959Z,-0.10
2018-03-19T09:15:12.210Z,-0.10
2018-03-19T09:17:39.781Z,-0.10
2018-03-19T09:20:08.029Z,0.00
2018-03-19T09:22:35.760Z,0.00
2018-03-19T09:25:03.331Z,0.10
2018-03-19T09:27:30.794Z,0.10
2018-03-19T09:29:58.283Z,0.00
2018-03-19T09:32:26.556Z,0.20
2018-03-19T09:34:54.007Z,0.10
2018-03-19T09:37:21.474Z,0.20
2018-03-19T09:39:49.724Z,0.30
2018-03-19T09:42:17.213Z,0.30
2018-03-19T09:44:45.666Z,0.30
2018-03-19T09:47:13.140Z,0.30
2018-03-19T09:49:41.395Z,0.30
2018-03-19T09:52:08.894Z,0.30
2018-03-19T09:54:36.401Z,0.30
2018-03-19T09:57:03.859Z,0.40
2018-03-19T09:59:31.772Z,0.40
2018-03-19T10:02:01.234Z,0.40
2018-03-19T10:04:29.063Z,0.30
2018-03-19T10:09:21.687Z,0.20
2018-03-19T10:11:49.160Z,0.20
2018-03-19T10:14:16.657Z,0.20
2018-03-19T10:16:44.492Z,0.20
2018-03-19T10:19:11.953Z,0.30
2018-03-19T10:21:39.567Z,0.30
2018-03-19T10:24:07.846Z,0.40
2018-03-19T10:26:35.331Z,0.40
2018-03-19T10:29:03.048Z,0.50
2018-03-19T10:31:30.606Z,0.40
2018-03-19T10:33:59.497Z,0.30
2018-03-19T10:36:27.872Z,0.40
2018-03-19T10:38:55.336Z,0.40
2018-03-19T10:41:23.572Z,0.40
2018-03-19T10:43:51.368Z,0.40
2018-03-19T10:46:19.632Z,0.60
2018-03-19T10:48:47.163Z,0.60
2018-03-19T10:51:14.672Z,0.70
2018-03-19T10:53:42.890Z,0.90
2018-03-19T10:56:10.519Z,0.80
2018-03-19T10:58:37.992Z,0.90
2018-03-19T11:01:11.355Z,1.00
2018-03-19T11:03:39.592Z,1.10
2018-03-19T11:06:12.903Z,1.10
2018-03-19T11:08:45.960Z,1.10
2018-03-19T11:11:13.449Z,1.10
2018-03-19T11:13:41.738Z,1.10
2018-03-19T11:16:10.391Z,1.20
2018-03-19T11:18:38.159Z,1.10
2018-03-19T11:21:05.631Z,1.20
2018-03-19T12:06:16.699Z,0.70
2018-03-19T12:08:44.245Z,0.70
2018-03-19T12:11:11.806Z,0.60
2018-03-19T12:13:39.279Z,0.50
2018-03-19T12:16:07.544Z,0.50
2018-03-19T12:18:35.011Z,0.50
2018-03-19T12:21:03.250Z,0.60
2018-03-19T12:23:31.344Z,0.60
2018-03-19T12:25:58.800Z,0.60
2018-03-19T12:28:26.295Z,0.60
2018-03-19T12:30:53.754Z,0.60
2018-03-19T12:33:21.268Z,0.70
2018-03-19T12:35:48.816Z,0.70
2018-03-19T12:38:16.277Z,0.70
2018-03-19T12:40:43.762Z,0.80
2018-03-19T12:43:12.013Z,0.90
2018-03-19T12:45:39.516Z,0.90
2018-03-19T12:48:06.980Z,1.00
2018-03-19T12:50:34.470Z,1.00
2018-03-19T12:53:02.704Z,0.90
2018-03-19T12:55:30.201Z,0.90
2018-03-19T12:57:57.766Z,0.90
2018-03-19T13:00:26.047Z,0.90
2018-03-19T13:02:53.507Z,0.90
2018-03-19T13:05:21.770Z,0.90
2018-03-19T13:07:49.263Z,0.90
2018-03-19T13:10:16.794Z,0.90
2018-03-19T13:12:44.257Z,0.70
2018-03-19T13:15:11.739Z,0.70
2018-03-19T13:17:39.218Z,0.60
2018-03-19T13:20:06.822Z,0.60
2018-03-19T13:22:34.392Z,0.60
2018-03-19T13:25:01.929Z,0.70
2018-03-19T13:27:29.421Z,0.80
2018-03-19T13:29:56.944Z,0.90
2018-03-19T13:32:24.507Z,0.80
2018-03-19T13:34:51.971Z,0.80
2018-03-19T13:37:20.198Z,0.90
2018-03-19T13:39:47.690Z,0.90
2018-03-19T13:42:15.245Z,1.00
2018-03-19T13:44:42.728Z,1.10
2018-03-19T13:47:10.994Z,1.20
2018-03-19T13:49:38.437Z,1.20
2018-03-19T13:52:05.921Z,1.20
2018-03-19T13:54:34.149Z,1.20
2018-03-19T13:57:02.622Z,1.20
2018-03-19T13:59:30.080Z,1.30
2018-03-19T14:01:57.561Z,1.30
2018-03-19T14:04:25.065Z,1.30
2018-03-19T14:06:52.549Z,1.30
2018-03-19T14:09:20.021Z,1.40
2018-03-19T14:11:47.514Z,1.40
2018-03-19T14:14:15.033Z,1.40
2018-03-19T14:16:42.517Z,1.40
2018-03-19T14:19:09.980Z,1.30
2018-03-19T14:21:37.442Z,1.30
2018-03-19T14:24:05.076Z,1.30
2018-03-19T14:26:33.437Z,1.20
2018-03-19T14:29:00.953Z,1.20
2018-03-19T14:31:28.554Z,1.20
2018-03-19T14:33:57.407Z,1.20
2018-03-19T14:36:24.898Z,1.10
2018-03-19T14:38:52.374Z,1.10
2018-03-19T14:41:20.663Z,1.10
2018-03-19T14:43:52.790Z,1.20
2018-03-19T14:46:20.436Z,1.10
2018-03-19T14:48:48.799Z,1.10
2018-03-19T14:51:17.397Z,1.10
2018-03-19T14:53:44.906Z,1.10
2018-03-19T14:56:12.394Z,1.10
2018-03-19T14:58:39.858Z,1.10
2018-03-19T15:01:07.347Z,1.10
2018-03-19T15:03:35.578Z,1.10
2018-03-19T15:06:03.070Z,1.00
2018-03-19T15:08:30.690Z,1.00
2018-03-19T15:10:58.189Z,1.00
2018-03-19T15:13:26.525Z,1.00
2018-03-19T15:15:54.905Z,1.00
2018-03-19T15:18:24.122Z,1.00
2018-03-19T15:20:52.605Z,1.00
2018-03-19T15:23:20.187Z,1.00
2018-03-19T15:25:48.451Z,1.00
2018-03-19T15:28:15.952Z,1.00
2018-03-19T15:30:43.450Z,1.00
2018-03-19T15:33:10.918Z,1.00
2018-03-19T15:35:38.457Z,1.00
2018-03-19T15:38:05.956Z,1.00
2018-03-19T15:40:34.214Z,1.00
2018-03-19T15:43:06.522Z,1.00
2018-03-19T15:45:34.553Z,1.00
2018-03-19T15:48:02.107Z,1.00
2018-03-19T15:50:29.604Z,1.00
2018-03-19T15:52:57.055Z,1.00
2018-03-19T15:55:24.575Z,1.00
2018-03-19T15:57:52.046Z,1.00
2018-03-19T16:00:20.289Z,1.00
2018-03-19T16:02:47.849Z,1.00
2018-03-19T16:05:15.332Z,0.90
2018-03-19T16:07:42.878Z,0.90
2018-03-19T16:10:10.462Z,0.90
2018-03-19T16:12:38.806Z,0.80
2018-03-19T16:15:06.272Z,0.80
2018-03-19T16:17:33.739Z,0.80
2018-03-19T16:20:02.046Z,0.80
2018-03-19T16:22:30.252Z,0.80
2018-03-19T16:24:57.736Z,0.80
2018-03-19T16:27:26.116Z,0.70
2018-03-19T16:29:54.362Z,0.70
2018-03-19T16:32:21.831Z,0.70
2018-03-19T16:34:49.322Z,0.70
2018-03-19T16:37:16.840Z,0.70
2018-03-19T16:39:44.327Z,0.70
2018-03-19T16:42:12.602Z,0.70
2018-03-19T16:44:40.825Z,0.60
2018-03-19T16:47:09.387Z,0.60
2018-03-19T16:49:36.896Z,0.60
2018-03-19T16:52:04.515Z,0.60
2018-03-19T16:54:33.264Z,0.60
2018-03-19T16:57:09.497Z,0.50
2018-03-19T16:59:37.067Z,0.50
2018-03-19T17:02:05.313Z,0.50
2018-03-19T17:04:32.783Z,0.50
2018-03-19T17:07:00.358Z,0.50
2018-03-19T17:09:28.758Z,0.50
2018-03-19T17:11:56.247Z,0.50
2018-03-19T17:14:24.716Z,0.50
2018-03-19T17:16:53.206Z,0.40
2018-03-19T17:19:20.693Z,0.40
2018-03-19T17:21:48.517Z,0.40
2018-03-19T17:24:16.383Z,0.40
2018-03-19T17:26:43.932Z,0.30
2018-03-19T17:29:11.439Z,0.30
2018-03-19T17:31:38.984Z,0.30
2018-03-19T17:34:06.475Z,0.30
2018-03-19T17:36:34.822Z,0.30
2018-03-19T17:39:02.293Z,0.20
2018-03-19T17:41:30.539Z,0.20
2018-03-19T17:43:58.024Z,0.20
2018-03-19T17:46:26.244Z,0.20
2018-03-19T17:48:53.775Z,0.20
2018-03-19T17:51:21.301Z,0.20
2018-03-19T17:53:48.855Z,0.20
2018-03-19T17:56:16.353Z,0.20
2018-03-19T17:58:43.822Z,0.20
2018-03-19T18:01:11.316Z,0.20
2018-03-19T18:03:38.790Z,0.20
2018-03-19T18:06:06.343Z,0.20
2018-03-19T18:08:33.898Z,0.10
2018-03-19T18:11:01.460Z,0.10
2018-03-19T18:13:29.005Z,0.00
2018-03-19T18:15:56.594Z,0.00
2018-03-19T18:18:24.140Z,0.00
2018-03-19T18:20:52.671Z,0.00
2018-03-19T18:23:20.142Z,0.00
2018-03-19T18:25:47.637Z,0.00
2018-03-19T18:28:15.878Z,0.00
2018-03-19T18:30:43.381Z,0.00
2018-03-19T18:33:11.630Z,-0.10
2018-03-19T18:35:39.114Z,-0.10
2018-03-19T18:38:09.397Z,0.00
2018-03-19T18:40:36.921Z,0.00
2018-03-19T18:43:04.424Z,0.00
2018-03-19T18:45:32.641Z,0.00
2018-03-19T18:48:00.184Z,0.00
2018-03-19T18:50:27.704Z,0.00
2018-03-19T18:53:00.262Z,0.00
2018-03-19T18:55:29.032Z,0.00
2018-03-19T18:57:57.306Z,0.00
2018-03-19T19:00:24.877Z,0.00
2018-03-19T19:02:52.473Z,0.00
2018-03-19T19:05:20.749Z,0.00
2018-03-19T19:07:49.001Z,0.00
2018-03-19T19:10:16.514Z,0.00
2018-03-19T19:12:44.802Z,0.00
2018-03-19T19:15:13.376Z,-0.10
2018-03-19T19:17:42.252Z,-0.10
2018-03-19T19:20:10.750Z,-0.10
2018-03-19T19:22:39.015Z,-0.10
2018-03-19T19:25:12.218Z,-0.20
2018-03-19T19:27:40.223Z,-0.10
2018-03-19T19:30:07.727Z,-0.10
2018-03-19T19:32:35.391Z,-0.20
2018-03-19T19:35:02.881Z,-0.20
2018-03-19T19:37:30.454Z,-0.20
2018-03-19T19:39:57.904Z,-0.20
2018-03-19T19:42:25.407Z,-0.20
2018-03-19T19:44:52.905Z,-0.20
2018-03-19T19:47:20.368Z,-0.30
2018-03-19T19:49:47.929Z,-0.30
2018-03-19T19:52:15.487Z,-0.30
2018-03-19T19:54:42.953Z,-0.30
2018-03-19T19:57:10.439Z,-0.30
2018-03-19T19:59:38.681Z,-0.20
2018-03-19T20:02:06.150Z,-0.30
2018-03-19T20:04:33.665Z,-0.20
2018-03-19T20:07:01.182Z,-0.20
2018-03-19T20:09:28.646Z,-0.20
2018-03-19T20:11:56.160Z,-0.20
2018-03-19T20:14:23.661Z,-0.20
2018-03-19T20:16:51.182Z,-0.20
2018-03-19T20:19:18.678Z,-0.20
2018-03-19T20:21:46.190Z,-0.20
2018-03-19T20:24:13.670Z,-0.20
2018-03-19T20:26:41.907Z,-0.20
2018-03-19T20:29:09.385Z,-0.20
2018-03-19T20:31:36.889Z,-0.10
2018-03-19T20:34:04.399Z,-0.10
2018-03-19T20:36:31.950Z,-0.10
2018-03-19T20:38:59.594Z,-0.10
2018-03-19T20:41:27.094Z,-0.20
2018-03-19T20:43:55.324Z,-0.20
2018-03-19T20:46:23.020Z,-0.20
2018-03-19T20:48:51.420Z,-0.20
2018-03-19T20:51:18.910Z,-0.20
2018-03-19T20:53:46.378Z,-0.20
2018-03-19T20:56:13.866Z,-0.20
2018-03-19T20:58:42.123Z,-0.20
2018-03-19T21:01:09.614Z,-0.20
2018-03-19T21:03:37.082Z,-0.20
2018-03-19T21:06:04.582Z,-0.30
2018-03-19T21:08:32.048Z,-0.30
2018-03-19T21:10:59.538Z,-0.30
2018-03-19T21:13:27.057Z,-0.40
2018-03-19T21:15:55.807Z,-0.40
2018-03-19T21:18:23.367Z,-0.40
2018-03-19T21:20:51.682Z,-0.40
2018-03-19T21:23:19.170Z,-0.40
2018-03-19T21:25:46.630Z,-0.40
2018-03-19T21:28:14.171Z,-0.40
2018-03-19T21:30:42.380Z,-0.50
2018-03-19T21:33:09.880Z,-0.50
2018-03-19T21:35:37.421Z,-0.50
2018-03-19T21:38:04.878Z,-0.50
2018-03-19T21:40:32.378Z,-0.50
2018-03-19T21:43:00.623Z,-0.40
2018-03-19T21:45:28.170Z,-0.50
2018-03-19T21:47:55.661Z,-0.40
2018-03-19T21:50:23.922Z,-0.30
2018-03-19T21:52:51.394Z,-0.30
2018-03-19T21:55:19.657Z,-0.20
2018-03-19T21:57:47.914Z,-0.20
2018-03-19T22:00:15.398Z,-0.20
2018-03-19T22:02:43.634Z,-0.20
2018-03-19T22:05:11.675Z,-0.20
2018-03-19T22:07:39.174Z,-0.20
2018-03-19T22:10:06.725Z,-0.20
2018-03-19T22:12:34.286Z,-0.30
2018-03-19T22:15:02.562Z,-0.30
2018-03-19T22:17:30.122Z,-0.30
2018-03-19T22:19:57.598Z,-0.30
2018-03-19T22:22:25.851Z,-0.40
2018-03-19T22:24:53.309Z,-0.40
2018-03-19T22:27:20.860Z,-0.40
2018-03-19T22:29:48.421Z,-0.40
2018-03-19T22:32:15.898Z,-0.40
2018-03-19T22:34:44.165Z,-0.40
2018-03-19T22:37:12.416Z,-0.40
2018-03-19T22:39:40.031Z,-0.40
2018-03-19T22:42:07.568Z,-0.30
2018-03-19T22:44:35.923Z,-0.40
2018-03-19T22:47:04.195Z,-0.40
2018-03-19T22:49:31.679Z,-0.40
2018-03-19T22:51:59.169Z,-0.40
2018-03-19T22:54:26.639Z,-0.40
2018-03-19T22:56:54.334Z,-0.40
2018-03-19T22:59:21.818Z,-0.40
2018-03-19T23:01:49.338Z,-0.40
2018-03-19T23:04:28.630Z,-0.40
2018-03-19T23:06:56.134Z,-0.50
2018-03-19T23:09:23.601Z,-0.50
2018-03-19T23:14:42.974Z,-0.60
2018-03-19T23:17:10.532Z,-0.60
2018-03-19T23:19:38.008Z,-0.50
2018-03-19T23:22:06.277Z,-0.60
2018-03-19T23:24:34.636Z,-0.60
2018-03-19T23:27:02.106Z,-0.60
2018-03-19T23:29:30.380Z,-0.60
2018-03-19T23:31:57.859Z,-0.60
2018-03-19T23:34:25.383Z,-0.70
2018-03-19T23:36:52.879Z,-0.70
2018-03-19T23:39:20.342Z,-0.70
2018-03-19T23:41:47.834Z,-0.70
2018-03-19T23:44:15.328Z,-0.70
2018-03-19T23:46:43.586Z,-0.70
2018-03-19T23:49:11.840Z,-0.80
2018-03-19T23:51:39.332Z,-0.80
2018-03-19T23:54:07.582Z,-0.80
2018-03-19T23:56:35.835Z,-0.80
2018-03-19T23:59:03.298Z,-0.80
